sensor_id;sensor_type;location;lat;lon;timestamp;P1;durP1;ratioP1;P2;durP2;ratioP2
13712;SDS011;6928;50.546;7.120;2022-07-15T00:02:23;2.40;;;0.73;;
13712;SDS011;6928;50.546;7.120;2022-07-15T00:04:49;1.40;;;0.90;;
13712;SDS011;6928;50.546;7.120;2022-07-15T00:07:16;4.53;;;0.90;;
13712;SDS011;6928;50.546;7.120;2022-07-15T00:09:45;1.33;;;0.70;;
13712;SDS011;6928;50.546;7.120;2022-07-15T00:12:30;0.70;;;0.70;;
13712;SDS011;6928;50.546;7.120;2022-07-15T00:14:58;1.98;;;0.98;;
13712;SDS011;6928;50.546;7.120;2022-07-15T00:17:25;1.63;;;0.50;;
13712;SDS011;6928;50.546;7.120;2022-07-15T00:19:52;1.13;;;0.52;;
13712;SDS011;6928;50.546;7.120;2022-07-15T00:22:19;1.25;;;0.60;;
13712;SDS011;6928;50.546;7.120;2022-07-15T00:24:46;2.28;;;0.60;;
13712;SDS011;6928;50.546;7.120;2022-07-15T00:27:13;2.10;;;0.60;;
13712;SDS011;6928;50.546;7.120;2022-07-15T00:29:40;1.52;;;0.73;;
13712;SDS011;6928;50.546;7.120;2022-07-15T00:32:08;2.40;;;0.65;;
13712;SDS011;6928;50.546;7.120;2022-07-15T00:34:35;2.47;;;0.65;;
13712;SDS011;6928;50.546;7.120;2022-07-15T00:37:02;2.35;;;0.82;;
13712;SDS011;6928;50.546;7.120;2022-07-15T00:39:29;1.30;;;0.70;;
13712;SDS011;6928;50.546;7.120;2022-07-15T00:41:56;1.73;;;0.73;;
13712;SDS011;6928;50.546;7.120;2022-07-15T00:44:22;0.93;;;0.50;;
13712;SDS011;6928;50.546;7.120;2022-07-15T00:46:50;1.45;;;0.57;;
13712;SDS011;6928;50.546;7.120;2022-07-15T00:49:19;2.92;;;0.80;;
13712;SDS011;6928;50.546;7.120;2022-07-15T00:51:46;3.00;;;0.60;;
13712;SDS011;6928;50.546;7.120;2022-07-15T00:54:16;2.65;;;0.70;;
13712;SDS011;6928;50.546;7.120;2022-07-15T00:56:49;2.35;;;0.82;;
13712;SDS011;6928;50.546;7.120;2022-07-15T00:59:19;2.38;;;0.60;;
13712;SDS011;6928;50.546;7.120;2022-07-15T01:01:47;2.47;;;0.73;;
13712;SDS011;6928;50.546;7.120;2022-07-15T01:04:14;3.50;;;0.82;;
13712;SDS011;6928;50.546;7.120;2022-07-15T01:06:46;0.80;;;0.80;;
13712;SDS011;6928;50.546;7.120;2022-07-15T01:09:13;5.18;;;0.65;;
13712;SDS011;6928;50.546;7.120;2022-07-15T01:11:40;2.47;;;0.80;;
13712;SDS011;6928;50.546;7.120;2022-07-15T01:14:07;1.08;;;0.77;;
13712;SDS011;6928;50.546;7.120;2022-07-15T01:16:34;2.58;;;0.55;;
13712;SDS011;6928;50.546;7.120;2022-07-15T01:19:00;3.03;;;0.63;;
13712;SDS011;6928;50.546;7.120;2022-07-15T01:21:28;6.80;;;0.75;;
13712;SDS011;6928;50.546;7.120;2022-07-15T01:23:55;1.40;;;0.77;;
13712;SDS011;6928;50.546;7.120;2022-07-15T01:26:22;2.28;;;0.95;;
13712;SDS011;6928;50.546;7.120;2022-07-15T01:28:49;1.48;;;0.80;;
13712;SDS011;6928;50.546;7.120;2022-07-15T01:31:15;4.22;;;0.88;;
13712;SDS011;6928;50.546;7.120;2022-07-15T01:33:42;3.40;;;0.75;;
13712;SDS011;6928;50.546;7.120;2022-07-15T01:36:09;0.98;;;0.73;;
13712;SDS011;6928;50.546;7.120;2022-07-15T01:38:37;3.05;;;1.10;;
13712;SDS011;6928;50.546;7.120;2022-07-15T01:41:04;2.20;;;0.98;;
13712;SDS011;6928;50.546;7.120;2022-07-15T01:43:31;2.15;;;1.00;;
13712;SDS011;6928;50.546;7.120;2022-07-15T01:45:57;3.00;;;1.00;;
13712;SDS011;6928;50.546;7.120;2022-07-15T01:48:24;2.08;;;0.90;;
13712;SDS011;6928;50.546;7.120;2022-07-15T01:51:09;1.10;;;1.00;;
13712;SDS011;6928;50.546;7.120;2022-07-15T01:53:35;3.97;;;1.10;;
13712;SDS011;6928;50.546;7.120;2022-07-15T01:56:04;0.80;;;0.80;;
13712;SDS011;6928;50.546;7.120;2022-07-15T01:58:31;2.38;;;1.20;;
13712;SDS011;6928;50.546;7.120;2022-07-15T02:00:59;3.75;;;1.13;;
13712;SDS011;6928;50.546;7.120;2022-07-15T02:03:25;1.00;;;0.73;;
13712;SDS011;6928;50.546;7.120;2022-07-15T02:05:52;1.70;;;0.95;;
13712;SDS011;6928;50.546;7.120;2022-07-15T02:08:19;4.00;;;0.77;;
13712;SDS011;6928;50.546;7.120;2022-07-15T02:10:47;2.30;;;1.13;;
13712;SDS011;6928;50.546;7.120;2022-07-15T02:13:14;1.92;;;0.88;;
13712;SDS011;6928;50.546;7.120;2022-07-15T02:15:41;2.97;;;1.02;;
13712;SDS011;6928;50.546;7.120;2022-07-15T02:18:08;3.58;;;1.20;;
13712;SDS011;6928;50.546;7.120;2022-07-15T02:20:35;3.22;;;0.98;;
13712;SDS011;6928;50.546;7.120;2022-07-15T02:23:02;3.47;;;1.10;;
13712;SDS011;6928;50.546;7.120;2022-07-15T02:25:30;3.47;;;1.10;;
13712;SDS011;6928;50.546;7.120;2022-07-15T02:28:00;2.20;;;1.10;;
13712;SDS011;6928;50.546;7.120;2022-07-15T02:30:29;2.65;;;1.00;;
13712;SDS011;6928;50.546;7.120;2022-07-15T02:32:58;4.35;;;1.35;;
13712;SDS011;6928;50.546;7.120;2022-07-15T02:35:25;4.30;;;1.30;;
13712;SDS011;6928;50.546;7.120;2022-07-15T02:37:52;3.03;;;1.13;;
13712;SDS011;6928;50.546;7.120;2022-07-15T02:40:19;2.90;;;1.10;;
13712;SDS011;6928;50.546;7.120;2022-07-15T02:42:46;3.70;;;1.10;;
13712;SDS011;6928;50.546;7.120;2022-07-15T02:45:16;3.92;;;1.27;;
13712;SDS011;6928;50.546;7.120;2022-07-15T02:47:43;3.40;;;1.30;;
13712;SDS011;6928;50.546;7.120;2022-07-15T02:50:09;1.38;;;0.80;;
13712;SDS011;6928;50.546;7.120;2022-07-15T02:52:36;1.77;;;1.30;;
13712;SDS011;6928;50.546;7.120;2022-07-15T02:55:04;2.88;;;1.23;;
13712;SDS011;6928;50.546;7.120;2022-07-15T02:57:32;4.95;;;1.42;;
13712;SDS011;6928;50.546;7.120;2022-07-15T02:59:58;1.50;;;0.90;;
13712;SDS011;6928;50.546;7.120;2022-07-15T03:02:27;2.83;;;1.30;;
13712;SDS011;6928;50.546;7.120;2022-07-15T03:04:53;3.00;;;1.38;;
13712;SDS011;6928;50.546;7.120;2022-07-15T03:07:20;1.10;;;1.00;;
13712;SDS011;6928;50.546;7.120;2022-07-15T03:09:47;3.70;;;1.33;;
13712;SDS011;6928;50.546;7.120;2022-07-15T03:12:13;3.30;;;1.10;;
13712;SDS011;6928;50.546;7.120;2022-07-15T03:14:40;2.30;;;1.30;;
13712;SDS011;6928;50.546;7.120;2022-07-15T03:17:07;2.70;;;1.27;;
13712;SDS011;6928;50.546;7.120;2022-07-15T03:19:35;7.43;;;1.08;;
13712;SDS011;6928;50.546;7.120;2022-07-15T03:22:02;1.90;;;1.13;;
13712;SDS011;6928;50.546;7.120;2022-07-15T03:24:28;0.93;;;0.93;;
13712;SDS011;6928;50.546;7.120;2022-07-15T03:26:55;1.23;;;1.08;;
13712;SDS011;6928;50.546;7.120;2022-07-15T03:29:22;4.55;;;1.23;;
13712;SDS011;6928;50.546;7.120;2022-07-15T03:31:49;4.47;;;1.50;;
13712;SDS011;6928;50.546;7.120;2022-07-15T03:34:17;2.65;;;1.50;;
13712;SDS011;6928;50.546;7.120;2022-07-15T03:36:46;7.75;;;1.50;;
13712;SDS011;6928;50.546;7.120;2022-07-15T03:39:13;4.72;;;1.50;;
13712;SDS011;6928;50.546;7.120;2022-07-15T03:41:39;0.95;;;0.95;;
13712;SDS011;6928;50.546;7.120;2022-07-15T03:44:06;1.55;;;1.38;;
13712;SDS011;6928;50.546;7.120;2022-07-15T03:46:33;2.33;;;1.17;;
13712;SDS011;6928;50.546;7.120;2022-07-15T03:49:00;3.22;;;1.52;;
13712;SDS011;6928;50.546;7.120;2022-07-15T03:51:27;3.05;;;1.75;;
13712;SDS011;6928;50.546;7.120;2022-07-15T03:53:57;5.28;;;1.42;;
13712;SDS011;6928;50.546;7.120;2022-07-15T03:56:24;2.53;;;1.27;;
13712;SDS011;6928;50.546;7.120;2022-07-15T03:58:51;3.70;;;1.63;;
13712;SDS011;6928;50.546;7.120;2022-07-15T04:01:17;2.95;;;1.30;;
13712;SDS011;6928;50.546;7.120;2022-07-15T04:03:45;3.00;;;1.20;;
13712;SDS011;6928;50.546;7.120;2022-07-15T04:06:13;3.72;;;1.42;;
13712;SDS011;6928;50.546;7.120;2022-07-15T04:08:39;1.73;;;0.90;;
13712;SDS011;6928;50.546;7.120;2022-07-15T04:11:08;4.25;;;1.30;;
13712;SDS011;6928;50.546;7.120;2022-07-15T04:13:35;2.25;;;1.50;;
13712;SDS011;6928;50.546;7.120;2022-07-15T04:16:02;5.65;;;1.40;;
13712;SDS011;6928;50.546;7.120;2022-07-15T04:18:30;3.03;;;1.80;;
13712;SDS011;6928;50.546;7.120;2022-07-15T04:20:57;5.57;;;1.42;;
13712;SDS011;6928;50.546;7.120;2022-07-15T04:23:24;4.85;;;1.45;;
13712;SDS011;6928;50.546;7.120;2022-07-15T04:25:51;3.65;;;1.17;;
13712;SDS011;6928;50.546;7.120;2022-07-15T04:28:20;3.60;;;1.40;;
13712;SDS011;6928;50.546;7.120;2022-07-15T04:30:47;1.27;;;0.95;;
13712;SDS011;6928;50.546;7.120;2022-07-15T04:33:14;6.72;;;1.58;;
13712;SDS011;6928;50.546;7.120;2022-07-15T04:35:41;3.53;;;1.48;;
13712;SDS011;6928;50.546;7.120;2022-07-15T04:38:08;6.00;;;1.48;;
13712;SDS011;6928;50.546;7.120;2022-07-15T04:40:36;7.07;;;1.38;;
13712;SDS011;6928;50.546;7.120;2022-07-15T04:43:05;2.60;;;1.10;;
13712;SDS011;6928;50.546;7.120;2022-07-15T04:45:33;1.77;;;1.25;;
13712;SDS011;6928;50.546;7.120;2022-07-15T04:48:00;2.85;;;1.13;;
13712;SDS011;6928;50.546;7.120;2022-07-15T04:50:47;4.75;;;1.50;;
13712;SDS011;6928;50.546;7.120;2022-07-15T04:53:16;2.25;;;1.40;;
13712;SDS011;6928;50.546;7.120;2022-07-15T04:55:43;3.00;;;1.05;;
13712;SDS011;6928;50.546;7.120;2022-07-15T04:58:10;6.13;;;1.15;;
13712;SDS011;6928;50.546;7.120;2022-07-15T05:00:41;4.40;;;1.40;;
13712;SDS011;6928;50.546;7.120;2022-07-15T05:03:08;1.52;;;1.13;;
13712;SDS011;6928;50.546;7.120;2022-07-15T05:05:34;1.77;;;1.30;;
13712;SDS011;6928;50.546;7.120;2022-07-15T05:08:02;3.13;;;1.52;;
13712;SDS011;6928;50.546;7.120;2022-07-15T05:10:29;3.65;;;1.58;;
13712;SDS011;6928;50.546;7.120;2022-07-15T05:12:55;5.10;;;2.15;;
13712;SDS011;6928;50.546;7.120;2022-07-15T05:15:22;4.45;;;1.73;;
13712;SDS011;6928;50.546;7.120;2022-07-15T05:17:50;4.10;;;1.20;;
13712;SDS011;6928;50.546;7.120;2022-07-15T05:20:17;4.55;;;1.60;;
13712;SDS011;6928;50.546;7.120;2022-07-15T05:22:44;3.30;;;1.30;;
13712;SDS011;6928;50.546;7.120;2022-07-15T05:25:11;4.15;;;1.65;;
13712;SDS011;6928;50.546;7.120;2022-07-15T05:27:38;4.35;;;1.60;;
13712;SDS011;6928;50.546;7.120;2022-07-15T05:30:05;3.60;;;1.60;;
13712;SDS011;6928;50.546;7.120;2022-07-15T05:32:34;4.13;;;1.60;;
13712;SDS011;6928;50.546;7.120;2022-07-15T05:35:02;2.50;;;1.27;;
13712;SDS011;6928;50.546;7.120;2022-07-15T05:37:30;4.72;;;1.40;;
13712;SDS011;6928;50.546;7.120;2022-07-15T05:39:56;2.80;;;1.23;;
13712;SDS011;6928;50.546;7.120;2022-07-15T05:42:23;1.90;;;1.30;;
13712;SDS011;6928;50.546;7.120;2022-07-15T05:44:50;7.03;;;1.75;;
13712;SDS011;6928;50.546;7.120;2022-07-15T05:47:17;6.35;;;1.40;;
13712;SDS011;6928;50.546;7.120;2022-07-15T05:49:44;6.15;;;1.55;;
13712;SDS011;6928;50.546;7.120;2022-07-15T05:52:12;5.70;;;1.40;;
13712;SDS011;6928;50.546;7.120;2022-07-15T05:54:38;5.00;;;1.58;;
13712;SDS011;6928;50.546;7.120;2022-07-15T05:57:05;4.68;;;1.83;;
13712;SDS011;6928;50.546;7.120;2022-07-15T05:59:32;2.80;;;1.77;;
13712;SDS011;6928;50.546;7.120;2022-07-15T06:01:59;8.05;;;1.70;;
13712;SDS011;6928;50.546;7.120;2022-07-15T06:04:25;3.95;;;1.70;;
13712;SDS011;6928;50.546;7.120;2022-07-15T06:06:52;6.95;;;1.40;;
13712;SDS011;6928;50.546;7.120;2022-07-15T06:09:21;5.57;;;1.63;;
13712;SDS011;6928;50.546;7.120;2022-07-15T06:11:48;3.60;;;1.95;;
13712;SDS011;6928;50.546;7.120;2022-07-15T06:14:15;4.35;;;1.42;;
13712;SDS011;6928;50.546;7.120;2022-07-15T06:16:42;2.13;;;1.42;;
13712;SDS011;6928;50.546;7.120;2022-07-15T06:19:08;5.55;;;1.70;;
13712;SDS011;6928;50.546;7.120;2022-07-15T06:21:35;5.32;;;1.98;;
13712;SDS011;6928;50.546;7.120;2022-07-15T06:24:03;4.57;;;1.73;;
13712;SDS011;6928;50.546;7.120;2022-07-15T06:26:31;4.82;;;2.13;;
13712;SDS011;6928;50.546;7.120;2022-07-15T06:28:58;9.70;;;2.53;;
13712;SDS011;6928;50.546;7.120;2022-07-15T06:31:25;4.47;;;1.92;;
13712;SDS011;6928;50.546;7.120;2022-07-15T06:33:52;6.28;;;1.70;;
13712;SDS011;6928;50.546;7.120;2022-07-15T06:36:19;5.93;;;2.25;;
13712;SDS011;6928;50.546;7.120;2022-07-15T06:38:46;4.57;;;2.03;;
13712;SDS011;6928;50.546;7.120;2022-07-15T06:41:15;5.07;;;2.30;;
13712;SDS011;6928;50.546;7.120;2022-07-15T06:43:43;2.80;;;1.95;;
13712;SDS011;6928;50.546;7.120;2022-07-15T06:46:10;6.15;;;2.33;;
13712;SDS011;6928;50.546;7.120;2022-07-15T06:48:37;15.05;;;2.38;;
13712;SDS011;6928;50.546;7.120;2022-07-15T06:51:04;10.38;;;2.00;;
13712;SDS011;6928;50.546;7.120;2022-07-15T06:53:31;4.30;;;2.10;;
13712;SDS011;6928;50.546;7.120;2022-07-15T06:55:58;6.22;;;2.17;;
13712;SDS011;6928;50.546;7.120;2022-07-15T06:58:25;8.90;;;2.63;;
13712;SDS011;6928;50.546;7.120;2022-07-15T07:00:53;5.80;;;2.30;;
13712;SDS011;6928;50.546;7.120;2022-07-15T07:03:20;8.57;;;2.28;;
13712;SDS011;6928;50.546;7.120;2022-07-15T07:05:47;4.78;;;2.33;;
13712;SDS011;6928;50.546;7.120;2022-07-15T07:08:13;5.70;;;2.22;;
13712;SDS011;6928;50.546;7.120;2022-07-15T07:10:40;4.60;;;2.50;;
13712;SDS011;6928;50.546;7.120;2022-07-15T07:13:07;4.20;;;2.50;;
13712;SDS011;6928;50.546;7.120;2022-07-15T07:15:34;8.18;;;2.72;;
13712;SDS011;6928;50.546;7.120;2022-07-15T07:18:02;3.47;;;2.63;;
13712;SDS011;6928;50.546;7.120;2022-07-15T07:20:29;7.85;;;2.80;;
13712;SDS011;6928;50.546;7.120;2022-07-15T07:22:56;6.25;;;2.75;;
13712;SDS011;6928;50.546;7.120;2022-07-15T07:25:23;5.38;;;2.92;;
13712;SDS011;6928;50.546;7.120;2022-07-15T07:27:50;14.40;;;3.60;;
13712;SDS011;6928;50.546;7.120;2022-07-15T07:30:17;7.68;;;3.45;;
13712;SDS011;6928;50.546;7.120;2022-07-15T07:32:44;15.38;;;3.60;;
13712;SDS011;6928;50.546;7.120;2022-07-15T07:35:12;5.65;;;4.03;;
13712;SDS011;6928;50.546;7.120;2022-07-15T07:37:38;7.25;;;3.67;;
13712;SDS011;6928;50.546;7.120;2022-07-15T07:40:06;7.53;;;3.30;;
13712;SDS011;6928;50.546;7.120;2022-07-15T07:42:34;4.18;;;1.42;;
13712;SDS011;6928;50.546;7.120;2022-07-15T07:45:01;3.83;;;1.30;;
13712;SDS011;6928;50.546;7.120;2022-07-15T07:47:29;4.35;;;2.15;;
13712;SDS011;6928;50.546;7.120;2022-07-15T07:49:56;4.03;;;2.72;;
13712;SDS011;6928;50.546;7.120;2022-07-15T07:52:25;9.57;;;2.20;;
13712;SDS011;6928;50.546;7.120;2022-07-15T07:54:51;4.90;;;1.85;;
13712;SDS011;6928;50.546;7.120;2022-07-15T07:57:18;5.57;;;2.00;;
13712;SDS011;6928;50.546;7.120;2022-07-15T07:59:45;2.85;;;1.55;;
13712;SDS011;6928;50.546;7.120;2022-07-15T08:02:11;2.92;;;1.70;;
13712;SDS011;6928;50.546;7.120;2022-07-15T08:04:38;1.70;;;1.40;;
13712;SDS011;6928;50.546;7.120;2022-07-15T08:07:05;2.40;;;1.58;;
13712;SDS011;6928;50.546;7.120;2022-07-15T08:09:34;2.20;;;1.70;;
13712;SDS011;6928;50.546;7.120;2022-07-15T08:12:00;2.38;;;1.27;;
13712;SDS011;6928;50.546;7.120;2022-07-15T08:14:27;6.20;;;1.50;;
13712;SDS011;6928;50.546;7.120;2022-07-15T08:16:55;2.55;;;1.67;;
13712;SDS011;6928;50.546;7.120;2022-07-15T08:19:24;1.88;;;1.50;;
13712;SDS011;6928;50.546;7.120;2022-07-15T08:21:51;3.17;;;1.25;;
13712;SDS011;6928;50.546;7.120;2022-07-15T08:24:18;3.42;;;1.50;;
13712;SDS011;6928;50.546;7.120;2022-07-15T08:26:46;2.42;;;1.50;;
13712;SDS011;6928;50.546;7.120;2022-07-15T08:29:13;5.90;;;1.73;;
13712;SDS011;6928;50.546;7.120;2022-07-15T08:31:40;3.35;;;1.70;;
13712;SDS011;6928;50.546;7.120;2022-07-15T08:34:06;1.80;;;1.52;;
13712;SDS011;6928;50.546;7.120;2022-07-15T08:36:33;3.58;;;1.85;;
13712;SDS011;6928;50.546;7.120;2022-07-15T08:39:00;1.88;;;1.40;;
13712;SDS011;6928;50.546;7.120;2022-07-15T08:41:27;2.17;;;1.40;;
13712;SDS011;6928;50.546;7.120;2022-07-15T08:43:55;2.05;;;1.60;;
13712;SDS011;6928;50.546;7.120;2022-07-15T08:46:23;5.90;;;1.27;;
13712;SDS011;6928;50.546;7.120;2022-07-15T08:48:52;6.15;;;1.20;;
13712;SDS011;6928;50.546;7.120;2022-07-15T08:51:24;4.85;;;1.40;;
13712;SDS011;6928;50.546;7.120;2022-07-15T08:53:52;5.25;;;1.48;;
13712;SDS011;6928;50.546;7.120;2022-07-15T08:56:20;3.35;;;1.17;;
13712;SDS011;6928;50.546;7.120;2022-07-15T08:58:48;6.35;;;1.50;;
13712;SDS011;6928;50.546;7.120;2022-07-15T09:01:16;4.65;;;1.15;;
13712;SDS011;6928;50.546;7.120;2022-07-15T09:03:42;3.35;;;1.48;;
13712;SDS011;6928;50.546;7.120;2022-07-15T09:06:10;6.55;;;1.83;;
13712;SDS011;6928;50.546;7.120;2022-07-15T09:08:57;3.25;;;1.15;;
13712;SDS011;6928;50.546;7.120;2022-07-15T09:11:27;5.32;;;1.35;;
13712;SDS011;6928;50.546;7.120;2022-07-15T09:13:57;2.38;;;1.20;;
13712;SDS011;6928;50.546;7.120;2022-07-15T09:16:27;1.67;;;1.05;;
13712;SDS011;6928;50.546;7.120;2022-07-15T09:18:53;5.78;;;1.40;;
13712;SDS011;6928;50.546;7.120;2022-07-15T09:21:22;2.20;;;1.20;;
13712;SDS011;6928;50.546;7.120;2022-07-15T09:23:52;2.03;;;1.20;;
13712;SDS011;6928;50.546;7.120;2022-07-15T09:26:23;1.67;;;1.10;;
13712;SDS011;6928;50.546;7.120;2022-07-15T09:28:53;1.13;;;0.90;;
13712;SDS011;6928;50.546;7.120;2022-07-15T09:31:30;3.00;;;1.17;;
13712;SDS011;6928;50.546;7.120;2022-07-15T09:34:16;3.88;;;1.00;;
13712;SDS011;6928;50.546;7.120;2022-07-15T09:36:45;3.17;;;1.00;;
13712;SDS011;6928;50.546;7.120;2022-07-15T09:39:15;3.35;;;0.90;;
13712;SDS011;6928;50.546;7.120;2022-07-15T09:41:44;3.03;;;0.90;;
13712;SDS011;6928;50.546;7.120;2022-07-15T09:44:12;2.03;;;0.93;;
13712;SDS011;6928;50.546;7.120;2022-07-15T09:46:44;1.58;;;1.48;;
13712;SDS011;6928;50.546;7.120;2022-07-15T09:49:14;2.20;;;1.10;;
13712;SDS011;6928;50.546;7.120;2022-07-15T09:51:44;3.42;;;0.98;;
13712;SDS011;6928;50.546;7.120;2022-07-15T09:54:13;1.27;;;1.00;;
13712;SDS011;6928;50.546;7.120;2022-07-15T09:56:40;2.05;;;1.00;;
13712;SDS011;6928;50.546;7.120;2022-07-15T09:59:08;2.13;;;0.90;;
13712;SDS011;6928;50.546;7.120;2022-07-15T10:01:35;0.93;;;0.93;;
13712;SDS011;6928;50.546;7.120;2022-07-15T10:04:04;0.90;;;0.75;;
13712;SDS011;6928;50.546;7.120;2022-07-15T10:06:32;3.83;;;1.40;;
13712;SDS011;6928;50.546;7.120;2022-07-15T10:09:03;2.22;;;1.13;;
13712;SDS011;6928;50.546;7.120;2022-07-15T10:11:31;2.38;;;1.05;;
13712;SDS011;6928;50.546;7.120;2022-07-15T10:14:25;4.55;;;1.30;;
13712;SDS011;6928;50.546;7.120;2022-07-15T10:17:26;3.78;;;1.25;;
13712;SDS011;6928;50.546;7.120;2022-07-15T10:20:27;0.95;;;0.90;;
13712;SDS011;6928;50.546;7.120;2022-07-15T10:23:10;2.25;;;1.45;;
13712;SDS011;6928;50.546;7.120;2022-07-15T10:25:57;1.42;;;1.02;;
13712;SDS011;6928;50.546;7.120;2022-07-15T10:28:39;2.05;;;0.90;;
13712;SDS011;6928;50.546;7.120;2022-07-15T10:31:17;1.38;;;1.00;;
13712;SDS011;6928;50.546;7.120;2022-07-15T10:36:56;1.85;;;0.98;;
13712;SDS011;6928;50.546;7.120;2022-07-15T10:39:27;1.95;;;1.02;;
13712;SDS011;6928;50.546;7.120;2022-07-15T10:42:10;2.03;;;1.10;;
13712;SDS011;6928;50.546;7.120;2022-07-15T10:44:49;1.75;;;1.00;;
13712;SDS011;6928;50.546;7.120;2022-07-15T10:47:32;1.83;;;1.13;;
13712;SDS011;6928;50.546;7.120;2022-07-15T10:49:59;1.65;;;0.70;;
13712;SDS011;6928;50.546;7.120;2022-07-15T10:52:28;1.75;;;0.70;;
13712;SDS011;6928;50.546;7.120;2022-07-15T10:55:00;0.82;;;0.75;;
13712;SDS011;6928;50.546;7.120;2022-07-15T11:00:29;0.70;;;0.63;;
13712;SDS011;6928;50.546;7.120;2022-07-15T11:03:01;6.80;;;0.82;;
13712;SDS011;6928;50.546;7.120;2022-07-15T11:05:31;2.42;;;1.17;;
13712;SDS011;6928;50.546;7.120;2022-07-15T11:08:00;9.43;;;2.85;;
13712;SDS011;6928;50.546;7.120;2022-07-15T11:17:08;3.28;;;1.20;;
13712;SDS011;6928;50.546;7.120;2022-07-15T11:19:35;1.73;;;0.90;;
13712;SDS011;6928;50.546;7.120;2022-07-15T11:22:03;3.05;;;1.02;;
13712;SDS011;6928;50.546;7.120;2022-07-15T11:24:31;1.05;;;0.95;;
13712;SDS011;6928;50.546;7.120;2022-07-15T11:27:00;0.90;;;0.90;;
13712;SDS011;6928;50.546;7.120;2022-07-15T11:29:39;1.67;;;0.90;;
13712;SDS011;6928;50.546;7.120;2022-07-15T11:32:12;2.70;;;0.98;;
13712;SDS011;6928;50.546;7.120;2022-07-15T11:34:41;0.90;;;0.90;;
13712;SDS011;6928;50.546;7.120;2022-07-15T11:37:09;48.88;;;7.43;;
13712;SDS011;6928;50.546;7.120;2022-07-15T11:39:39;1.58;;;1.00;;
13712;SDS011;6928;50.546;7.120;2022-07-15T11:42:05;1.75;;;0.90;;
13712;SDS011;6928;50.546;7.120;2022-07-15T11:45:00;5.15;;;1.08;;
13712;SDS011;6928;50.546;7.120;2022-07-15T11:47:27;1.83;;;1.00;;
13712;SDS011;6928;50.546;7.120;2022-07-15T11:49:57;1.83;;;0.90;;
13712;SDS011;6928;50.546;7.120;2022-07-15T11:52:26;1.30;;;0.80;;
13712;SDS011;6928;50.546;7.120;2022-07-15T11:54:54;3.25;;;0.77;;
13712;SDS011;6928;50.546;7.120;2022-07-15T11:57:22;1.75;;;0.73;;
13712;SDS011;6928;50.546;7.120;2022-07-15T11:59:50;3.97;;;0.98;;
13712;SDS011;6928;50.546;7.120;2022-07-15T12:02:19;1.60;;;0.80;;
13712;SDS011;6928;50.546;7.120;2022-07-15T12:04:51;3.28;;;1.02;;
13712;SDS011;6928;50.546;7.120;2022-07-15T12:07:34;2.75;;;1.05;;
13712;SDS011;6928;50.546;7.120;2022-07-15T12:10:10;1.23;;;0.80;;
13712;SDS011;6928;50.546;7.120;2022-07-15T12:12:41;5.75;;;1.10;;
13712;SDS011;6928;50.546;7.120;2022-07-15T12:15:17;2.28;;;0.98;;
13712;SDS011;6928;50.546;7.120;2022-07-15T12:17:44;2.25;;;1.10;;
13712;SDS011;6928;50.546;7.120;2022-07-15T12:20:11;2.78;;;0.70;;
13712;SDS011;6928;50.546;7.120;2022-07-15T12:22:50;1.88;;;1.20;;
13712;SDS011;6928;50.546;7.120;2022-07-15T12:25:29;0.93;;;0.70;;
13712;SDS011;6928;50.546;7.120;2022-07-15T12:27:56;2.35;;;1.50;;
13712;SDS011;6928;50.546;7.120;2022-07-15T12:30:30;0.77;;;0.77;;
13712;SDS011;6928;50.546;7.120;2022-07-15T12:33:14;2.65;;;0.80;;
13712;SDS011;6928;50.546;7.120;2022-07-15T12:35:42;2.33;;;1.00;;
13712;SDS011;6928;50.546;7.120;2022-07-15T12:38:09;1.58;;;0.93;;
13712;SDS011;6928;50.546;7.120;2022-07-15T12:40:44;1.55;;;0.90;;
13712;SDS011;6928;50.546;7.120;2022-07-15T12:43:11;2.05;;;0.60;;
13712;SDS011;6928;50.546;7.120;2022-07-15T12:45:39;3.05;;;0.85;;
13712;SDS011;6928;50.546;7.120;2022-07-15T12:48:06;3.55;;;1.02;;
13712;SDS011;6928;50.546;7.120;2022-07-15T12:50:35;3.17;;;0.75;;
13712;SDS011;6928;50.546;7.120;2022-07-15T12:53:22;4.53;;;1.23;;
13712;SDS011;6928;50.546;7.120;2022-07-15T12:55:53;3.90;;;0.77;;
13712;SDS011;6928;50.546;7.120;2022-07-15T12:58:27;0.77;;;0.77;;
13712;SDS011;6928;50.546;7.120;2022-07-15T13:01:03;1.50;;;0.90;;
13712;SDS011;6928;50.546;7.120;2022-07-15T13:03:32;1.65;;;1.00;;
13712;SDS011;6928;50.546;7.120;2022-07-15T13:05:59;2.55;;;1.05;;
13712;SDS011;6928;50.546;7.120;2022-07-15T13:08:26;1.35;;;0.82;;
13712;SDS011;6928;50.546;7.120;2022-07-15T13:10:58;1.40;;;1.08;;
13712;SDS011;6928;50.546;7.120;2022-07-15T13:13:30;4.70;;;1.30;;
13712;SDS011;6928;50.546;7.120;2022-07-15T13:16:00;3.45;;;0.90;;
13712;SDS011;6928;50.546;7.120;2022-07-15T13:18:29;2.97;;;0.90;;
13712;SDS011;6928;50.546;7.120;2022-07-15T13:20:57;2.92;;;1.02;;
13712;SDS011;6928;50.546;7.120;2022-07-15T13:23:25;2.47;;;1.13;;
13712;SDS011;6928;50.546;7.120;2022-07-15T13:25:52;3.10;;;1.00;;
13712;SDS011;6928;50.546;7.120;2022-07-15T13:28:21;0.80;;;0.80;;
13712;SDS011;6928;50.546;7.120;2022-07-15T13:30:49;1.33;;;0.77;;
13712;SDS011;6928;50.546;7.120;2022-07-15T13:33:16;0.77;;;0.60;;
13712;SDS011;6928;50.546;7.120;2022-07-15T13:35:43;0.77;;;0.77;;
13712;SDS011;6928;50.546;7.120;2022-07-15T13:38:10;1.40;;;0.88;;
13712;SDS011;6928;50.546;7.120;2022-07-15T13:40:36;0.95;;;0.85;;
13712;SDS011;6928;50.546;7.120;2022-07-15T13:43:03;2.65;;;0.90;;
13712;SDS011;6928;50.546;7.120;2022-07-15T13:45:31;1.33;;;0.88;;
13712;SDS011;6928;50.546;7.120;2022-07-15T13:47:58;0.60;;;0.60;;
13712;SDS011;6928;50.546;7.120;2022-07-15T13:50:25;3.15;;;1.00;;
13712;SDS011;6928;50.546;7.120;2022-07-15T13:53:10;1.70;;;0.73;;
13712;SDS011;6928;50.546;7.120;2022-07-15T13:55:36;1.23;;;0.77;;
13712;SDS011;6928;50.546;7.120;2022-07-15T13:58:07;2.15;;;0.70;;
13712;SDS011;6928;50.546;7.120;2022-07-15T14:00:36;1.13;;;0.50;;
13712;SDS011;6928;50.546;7.120;2022-07-15T14:03:04;3.10;;;0.80;;
13712;SDS011;6928;50.546;7.120;2022-07-15T14:05:31;2.17;;;0.70;;
13712;SDS011;6928;50.546;7.120;2022-07-15T14:07:58;1.35;;;0.82;;
13712;SDS011;6928;50.546;7.120;2022-07-15T14:10:25;1.92;;;0.85;;
13712;SDS011;6928;50.546;7.120;2022-07-15T14:12:51;1.23;;;0.70;;
13712;SDS011;6928;50.546;7.120;2022-07-15T14:15:18;1.15;;;0.75;;
13712;SDS011;6928;50.546;7.120;2022-07-15T14:17:46;3.33;;;0.80;;
13712;SDS011;6928;50.546;7.120;2022-07-15T14:20:13;0.93;;;0.68;;
13712;SDS011;6928;50.546;7.120;2022-07-15T14:22:41;6.20;;;0.65;;
13712;SDS011;6928;50.546;7.120;2022-07-15T14:25:08;0.93;;;0.47;;
13712;SDS011;6928;50.546;7.120;2022-07-15T14:27:35;1.38;;;0.80;;
13712;SDS011;6928;50.546;7.120;2022-07-15T14:30:02;1.08;;;0.52;;
13712;SDS011;6928;50.546;7.120;2022-07-15T14:32:30;0.75;;;0.60;;
13712;SDS011;6928;50.546;7.120;2022-07-15T14:35:00;2.63;;;0.63;;
13712;SDS011;6928;50.546;7.120;2022-07-15T14:37:27;0.98;;;0.55;;
13712;SDS011;6928;50.546;7.120;2022-07-15T14:39:53;1.20;;;0.60;;
13712;SDS011;6928;50.546;7.120;2022-07-15T14:42:20;0.95;;;0.65;;
13712;SDS011;6928;50.546;7.120;2022-07-15T14:44:47;2.47;;;1.40;;
13712;SDS011;6928;50.546;7.120;2022-07-15T14:47:13;1.50;;;0.80;;
13712;SDS011;6928;50.546;7.120;2022-07-15T14:49:40;1.77;;;0.80;;
13712;SDS011;6928;50.546;7.120;2022-07-15T14:52:08;8.32;;;0.70;;
13712;SDS011;6928;50.546;7.120;2022-07-15T14:54:35;4.40;;;0.70;;
13712;SDS011;6928;50.546;7.120;2022-07-15T14:57:02;3.60;;;0.70;;
13712;SDS011;6928;50.546;7.120;2022-07-15T14:59:29;1.05;;;0.60;;
13712;SDS011;6928;50.546;7.120;2022-07-15T15:01:56;1.00;;;0.60;;
13712;SDS011;6928;50.546;7.120;2022-07-15T15:04:23;1.30;;;0.70;;
13712;SDS011;6928;50.546;7.120;2022-07-15T15:06:50;3.60;;;0.82;;
13712;SDS011;6928;50.546;7.120;2022-07-15T15:09:18;2.63;;;0.70;;
13712;SDS011;6928;50.546;7.120;2022-07-15T15:11:45;3.72;;;0.90;;
13712;SDS011;6928;50.546;7.120;2022-07-15T15:14:12;5.65;;;0.70;;
13712;SDS011;6928;50.546;7.120;2022-07-15T15:16:38;0.82;;;0.70;;
13712;SDS011;6928;50.546;7.120;2022-07-15T15:19:05;4.60;;;0.80;;
13712;SDS011;6928;50.546;7.120;2022-07-15T15:21:32;4.95;;;0.90;;
13712;SDS011;6928;50.546;7.120;2022-07-15T15:23:59;2.47;;;0.60;;